This is the latest recevied weather packets stored in our database for station/object IW1CGW-13. If no packets are shown the sender has not sent any weather packets the latest 10 day(s).
| Time | Temp. | Humidity | Pressure | Rain* | Wind** | Luminosity | Snow |
|---|---|---|---|---|---|---|---|
| 1777373604 | 16.67° C | 69% | 1016.1 hPa | - | - | - | - |
| 1777372983 | 16.67° C | 69% | 1016.1 hPa | - | - | - | - |
| 1777372362 | 16.11° C | 69% | 1016.1 hPa | - | - | - | - |
| 1777371740 | 16.67° C | 69% | 1016.1 hPa | - | - | - | - |
| 1777371092 | 16.11° C | 69% | 1016.2 hPa | - | - | - | - |
| 1777370471 | 16.11° C | 68% | 1016.3 hPa | - | - | - | - |
| 1777369850 | 16.67° C | 68% | 1016.2 hPa | - | - | - | - |
| 1777369230 | 17.78° C | 68% | 1016.2 hPa | - | - | - | - |
| 1777367987 | 17.22° C | 67% | 1016.1 hPa | - | - | - | - |
| 1777367367 | 16.67° C | 68% | 1016.1 hPa | - | - | - | - |
| 1777366746 | 17.22° C | 66% | 1016 hPa | - | - | - | - |
| 1777366125 | 17.22° C | 66% | 1016 hPa | - | - | - | - |
| 1777365504 | 17.22° C | 67% | 1015.8 hPa | - | - | - | - |
| 1777364883 | 16.67° C | 69% | 1015.7 hPa | - | - | - | - |
| 1777363640 | 17.22° C | 66% | 1015.7 hPa | - | - | - | - |
| 1777363019 | 17.22° C | 66% | 1015.6 hPa | - | - | - | - |
| 1777362395 | 16.11° C | 68% | 1015.6 hPa | - | - | - | - |
| 1777361774 | 14.44° C | 70% | 1015.8 hPa | - | - | - | - |
| 1777361153 | 14.44° C | 69% | 1015.8 hPa | - | - | - | - |
| 1777360532 | 14.44° C | 69% | 1015.8 hPa | - | - | - | - |
| 1777359911 | 14.44° C | 69% | 1015.8 hPa | - | - | - | - |
| 1777359290 | 15° C | 69% | 1015.8 hPa | - | - | - | - |
| 1777358669 | 15° C | 69% | 1015.7 hPa | - | - | - | - |
| 1777358048 | 15° C | 69% | 1015.5 hPa | - | - | - | - |
| 1777357425 | 15° C | 69% | 1015.4 hPa | - | - | - | - |
* Rain since midnight (hover to see other rain measurements)
** Current wind speed in m/s (hover to see current wind gust speed)